Time;durP1;ratioP1;P1;durP2;ratioP2;P2;SDS_P1;SDS_P2;PMS_P1;PMS_P2;Temp;Humidity;BMP_temperature;BMP_pressure;BME280_temperature;BME280_humidity;BME280_pressure;Samples;Min_cycle;Max_cycle;Signal;HPM_P1;HPM_P2
2022/06/26 00:02:06;;;;;;;4.63;2.80;;;;;;;18.73;100.00;100135.25;1724590;81;21052;-56
2022/06/26 00:04:35;;;;;;;4.03;2.17;;;;;;;18.69;100.00;100134.09;1722852;81;21215;-68
2022/06/26 00:07:03;;;;;;;4.63;2.40;;;;;;;18.71;100.00;100138.14;1720896;81;21068;-67
2022/06/26 00:09:30;;;;;;;4.37;2.30;;;;;;;18.65;100.00;100139.05;1721146;80;21037;-57
2022/06/26 00:11:59;;;;;;;6.80;2.47;;;;;;;18.65;100.00;100143.53;1732074;80;21037;-57
2022/06/26 00:14:27;;;;;;;6.47;2.77;;;;;;;18.68;100.00;100150.46;1716715;81;21009;-67
2022/06/26 00:16:54;;;;;;;5.13;2.50;;;;;;;18.70;100.00;100156.81;1721141;81;21230;-58
2022/06/26 00:19:21;;;;;;;6.67;2.70;;;;;;;18.73;100.00;100162.17;1662415;84;21419;-58
2022/06/26 00:21:50;;;;;;;7.87;2.50;;;;;;;18.73;100.00;100160.86;1699809;82;21030;-57
2022/06/26 00:24:18;;;;;;;6.07;3.07;;;;;;;18.62;100.00;100160.64;1720967;81;21660;-58
2022/06/26 00:26:46;;;;;;;6.50;2.77;;;;;;;18.58;100.00;100157.41;1721357;83;20847;-66
2022/06/26 00:29:13;;;;;;;4.87;2.73;;;;;;;18.56;100.00;100161.61;1720810;81;21329;-58
2022/06/26 00:31:40;;;;;;;5.00;2.80;;;;;;;18.62;100.00;100162.48;1726601;81;21040;-57
2022/06/26 00:34:07;;;;;;;7.67;2.90;;;;;;;18.59;100.00;100155.03;1721668;80;21072;-57
2022/06/26 00:36:35;;;;;;;8.07;2.40;;;;;;;18.57;100.00;100157.92;1722179;81;20894;-57
2022/06/26 00:39:02;;;;;;;5.77;2.60;;;;;;;18.60;100.00;100153.50;1728805;80;20993;-67
2022/06/26 00:41:29;;;;;;;6.63;2.70;;;;;;;18.50;100.00;100158.59;1712516;81;21461;-58
2022/06/26 00:43:56;;;;;;;6.97;2.77;;;;;;;18.52;100.00;100158.34;1721847;81;21690;-58
2022/06/26 00:46:24;;;;;;;5.63;2.30;;;;;;;18.44;100.00;100153.73;1723559;80;21041;-58
2022/06/26 00:48:52;;;;;;;6.97;2.70;;;;;;;18.38;100.00;100154.69;1721308;81;21053;-64
2022/06/26 00:51:20;;;;;;;4.87;2.53;;;;;;;18.34;100.00;100153.56;1721022;81;20914;-59
2022/06/26 00:53:47;;;;;;;5.27;2.30;;;;;;;18.31;100.00;100143.48;1722807;81;21082;-58
2022/06/26 00:56:15;;;;;;;4.93;2.57;;;;;;;18.32;100.00;100140.31;1722574;80;20981;-57
2022/06/26 00:58:42;;;;;;;4.90;2.57;;;;;;;18.21;100.00;100142.76;1728182;81;20929;-57
2022/06/26 01:01:09;;;;;;;4.93;2.23;;;;;;;18.15;100.00;100138.44;1721372;81;21057;-67
2022/06/26 01:03:36;;;;;;;5.03;2.50;;;;;;;18.11;100.00;100129.92;1721974;80;21068;-57
2022/06/26 01:06:06;;;;;;;4.60;2.47;;;;;;;18.15;100.00;100126.58;1722538;81;21261;-58
2022/06/26 01:08:35;;;;;;;3.50;2.40;;;;;;;18.12;100.00;100124.41;1721904;80;20978;-57
2022/06/26 01:11:17;;;;;;;3.57;2.13;;;;;;;18.05;100.00;100130.33;1720493;80;21046;-60
2022/06/26 01:13:32;;;;;;;5.57;2.00;;;;;;;18.02;100.00;100120.24;1720017;80;21474;-61
2022/06/26 01:15:59;;;;;;;5.90;2.30;;;;;;;18.03;100.00;100123.68;1721400;83;21034;-57
2022/06/26 01:18:26;;;;;;;4.50;2.60;;;;;;;17.90;100.00;100120.81;1722501;81;21247;-67
2022/06/26 01:20:54;;;;;;;6.43;2.50;;;;;;;17.76;100.00;100122.91;1721302;81;20967;-58
2022/06/26 01:23:22;;;;;;;6.23;2.37;;;;;;;17.77;100.00;100113.16;1721279;81;20998;-57
2022/06/26 01:25:49;;;;;;;4.40;1.70;;;;;;;17.70;100.00;100115.39;1722205;80;21483;-57
2022/06/26 01:28:16;;;;;;;5.80;2.50;;;;;;;17.76;100.00;100113.67;1731923;80;21475;-68
2022/06/26 01:30:46;;;;;;;4.30;2.30;;;;;;;17.77;100.00;100117.94;1721532;81;22300;-58
2022/06/26 01:33:13;;;;;;;11.03;2.97;;;;;;;17.79;100.00;100124.28;1729507;81;21014;-58
2022/06/26 01:35:41;;;;;;;4.00;2.60;;;;;;;17.81;100.00;100120.39;1723821;81;21442;-62
2022/06/26 01:38:17;;;;;;;4.10;2.30;;;;;;;17.85;100.00;100111.49;1725258;80;21150;-67
2022/06/26 01:40:45;;;;;;;3.50;2.23;;;;;;;17.86;100.00;100113.09;1722224;80;21429;-64
2022/06/26 01:43:14;;;;;;;4.17;3.10;;;;;;;17.92;100.00;100116.12;1721509;81;22484;-58
2022/06/26 01:45:44;;;;;;;4.97;2.60;;;;;;;17.95;100.00;100120.90;1721541;80;21052;-57
2022/06/26 01:48:12;;;;;;;4.78;2.60;;;;;;;17.99;100.00;100130.77;1722404;81;21022;-57
2022/06/26 01:50:40;;;;;;;4.47;2.50;;;;;;;18.05;100.00;100126.89;1721378;81;21969;-57
2022/06/26 01:53:09;;;;;;;4.13;2.40;;;;;;;18.08;100.00;100125.11;1702250;80;21065;-59
2022/06/26 01:55:38;;;;;;;5.97;2.87;;;;;;;18.03;100.00;100127.11;1721189;82;21173;-57
2022/06/26 01:58:07;;;;;;;4.57;2.40;;;;;;;18.05;100.00;100129.53;1726125;80;20930;-57
2022/06/26 02:00:37;;;;;;;8.20;2.73;;;;;;;18.11;100.00;100129.40;1721799;80;21594;-58
2022/06/26 02:03:04;;;;;;;4.50;2.50;;;;;;;18.47;100.00;100129.50;1721693;81;21050;-58
2022/06/26 02:05:32;;;;;;;6.20;2.67;;;;;;;18.86;100.00;100135.44;1727448;81;21060;-58
2022/06/26 02:07:59;;;;;;;5.97;2.20;;;;;;;19.28;100.00;100137.64;1725693;81;21141;-59
2022/06/26 02:15:59;;;;;;;4.33;2.50;;;;;;;20.83;100.00;100133.28;1721519;81;20991;-57
2022/06/26 02:18:26;;;;;;;5.27;2.57;;;;;;;21.45;100.00;100131.33;1721630;81;21658;-57
2022/06/26 02:20:54;;;;;;;3.17;2.57;;;;;;;22.16;100.00;100136.13;1722213;80;22634;-57
2022/06/26 02:23:21;;;;;;;5.17;2.37;;;;;;;22.80;100.00;100121.53;1720176;82;21073;-60
2022/06/26 02:25:48;;;;;;;4.20;2.00;;;;;;;23.34;100.00;100125.47;1724298;81;22233;-57
2022/06/26 02:28:16;;;;;;;3.40;2.33;;;;;;;23.81;100.00;100112.27;1721919;81;21000;-58
2022/06/26 02:30:44;;;;;;;4.00;2.30;;;;;;;24.20;100.00;100114.95;1721593;80;21431;-57
2022/06/26 02:33:11;;;;;;;3.70;2.27;;;;;;;24.80;100.00;100115.57;1720959;80;21341;-61
2022/06/26 02:35:39;;;;;;;3.57;2.40;;;;;;;25.37;100.00;100116.61;1722339;80;21123;-57
2022/06/26 02:38:06;;;;;;;3.70;2.57;;;;;;;26.05;100.00;100116.03;1725649;81;20976;-65
2022/06/26 02:40:36;;;;;;;4.67;2.22;;;;;;;26.57;100.00;100122.22;1733415;80;21139;-57
2022/06/26 02:43:03;;;;;;;4.20;2.52;;;;;;;27.08;100.00;100127.99;1722250;81;21018;-67
2022/06/26 02:45:31;;;;;;;5.78;3.52;;;;;;;27.64;100.00;100121.56;1727016;80;22396;-57
2022/06/26 02:47:59;;;;;;;5.33;2.70;;;;;;;28.16;100.00;100123.95;1720516;83;20990;-67
2022/06/26 02:50:27;;;;;;;4.28;2.10;;;;;;;28.65;100.00;100125.73;1713263;81;21059;-57
2022/06/26 02:52:55;;;;;;;4.28;2.60;;;;;;;29.15;100.00;100116.13;1721471;81;21136;-68
2022/06/26 02:55:22;;;;;;;4.00;2.58;;;;;;;29.62;100.00;100121.80;1720844;83;21116;-57
2022/06/26 02:57:50;;;;;;;4.72;2.12;;;;;;;30.09;100.00;100117.97;1722181;83;21888;-61
2022/06/26 03:00:18;;;;;;;3.67;2.42;;;;;;;30.59;100.00;100121.48;1720449;80;20992;-58
2022/06/26 03:02:46;;;;;;;3.58;2.30;;;;;;;31.08;93.39;100121.98;1721648;80;21446;-58
2022/06/26 03:05:13;;;;;;;4.53;2.83;;;;;;;31.51;91.13;100125.02;1726242;81;21057;-59
2022/06/26 03:07:41;;;;;;;5.72;2.62;;;;;;;32.00;80.71;100123.20;1714125;82;21489;-59
2022/06/26 03:10:10;;;;;;;4.65;2.37;;;;;;;32.34;74.90;100120.75;1718998;82;21138;-70
2022/06/26 03:12:47;;;;;;;4.08;2.10;;;;;;;32.63;68.49;100124.69;1715537;82;21385;-59
2022/06/26 03:15:15;;;;;;;5.00;2.35;;;;;;;32.84;66.81;100117.84;1725644;82;21096;-59
2022/06/26 03:17:42;;;;;;;3.52;2.20;;;;;;;33.12;62.85;100115.88;1716718;81;21316;-59
2022/06/26 03:20:13;;;;;;;3.72;2.40;;;;;;;33.24;59.62;100112.38;1720220;82;20997;-58
2022/06/26 03:22:41;;;;;;;3.87;2.10;;;;;;;32.94;56.88;100112.60;1708882;82;21820;-69
2022/06/26 03:25:09;;;;;;;3.62;2.30;;;;;;;32.78;58.78;100111.10;1719394;82;20915;-58
2022/06/26 03:27:37;;;;;;;5.00;2.30;;;;;;;32.88;57.09;100112.02;1714409;82;21464;-60
2022/06/26 03:30:07;;;;;;;4.53;2.27;;;;;;;32.69;58.09;100107.16;1689958;82;21487;-57
2022/06/26 03:32:34;;;;;;;5.65;2.60;;;;;;;32.94;58.96;100113.95;1716412;82;21144;-57
2022/06/26 03:35:03;;;;;;;3.80;2.47;;;;;;;33.15;55.67;100108.45;1720041;82;21316;-60
2022/06/26 03:37:31;;;;;;;3.83;2.62;;;;;;;33.06;55.11;100108.55;1720472;82;21833;-58
2022/06/26 03:39:58;;;;;;;4.87;2.35;;;;;;;33.01;53.53;100105.30;1709158;81;20939;-59
2022/06/26 03:42:25;;;;;;;4.00;1.90;;;;;;;32.67;53.28;100108.05;1706116;82;21442;-58
2022/06/26 03:44:53;;;;;;;3.92;2.05;;;;;;;32.55;56.54;100109.38;1707609;81;21004;-58
2022/06/26 03:47:20;;;;;;;3.80;2.60;;;;;;;32.77;58.06;100107.37;1718703;82;21829;-58
2022/06/26 03:49:52;;;;;;;4.28;2.30;;;;;;;32.89;54.40;100114.94;1724386;82;21024;-72
2022/06/26 03:52:18;;;;;;;3.45;2.60;;;;;;;32.38;54.93;100114.34;1690106;83;21508;-60
2022/06/26 03:54:45;;;;;;;3.70;2.08;;;;;;;32.11;56.83;100120.33;1716397;82;21348;-60
2022/06/26 03:57:13;;;;;;;3.52;2.37;;;;;;;31.78;58.92;100116.98;1723281;82;21004;-57
2022/06/26 03:59:41;;;;;;;3.62;2.20;;;;;;;31.68;61.99;100119.53;1726118;82;21246;-57
2022/06/26 04:02:09;;;;;;;4.78;2.10;;;;;;;31.78;60.25;100125.07;1719860;82;21029;-58
2022/06/26 04:04:37;;;;;;;5.20;2.47;;;;;;;31.67;57.68;100119.31;1717815;81;21478;-58
2022/06/26 04:07:04;;;;;;;5.85;2.40;;;;;;;31.24;59.62;100120.31;1693484;81;21151;-58
2022/06/26 04:09:34;;;;;;;4.83;2.50;;;;;;;31.02;63.89;100115.19;1704843;82;20930;-58
2022/06/26 04:12:02;;;;;;;5.12;2.50;;;;;;;31.24;64.09;100116.27;1726615;82;21711;-70
2022/06/26 04:14:31;;;;;;;4.37;2.65;;;;;;;31.49;62.71;100119.19;1720684;82;21037;-62
2022/06/26 04:16:58;;;;;;;4.28;2.37;;;;;;;31.61;60.88;100124.65;1725005;82;20970;-57
2022/06/26 04:19:27;;;;;;;3.62;2.30;;;;;;;31.68;59.21;100118.75;1700669;82;21040;-57
2022/06/26 04:21:56;;;;;;;3.17;2.40;;;;;;;31.57;57.63;100123.73;1726303;82;21001;-68
2022/06/26 04:24:23;;;;;;;3.62;2.27;;;;;;;31.39;59.73;100128.42;1714184;82;22222;-68
2022/06/26 04:26:50;;;;;;;6.97;2.62;;;;;;;31.38;60.28;100132.80;1718889;82;22321;-57
2022/06/26 04:29:17;;;;;;;3.52;2.22;;;;;;;31.21;61.19;100127.69;1683307;81;21701;-59
2022/06/26 04:31:44;;;;;;;4.17;2.72;;;;;;;30.97;61.64;100136.36;1720778;82;21054;-57
2022/06/26 04:34:11;;;;;;;3.40;2.35;;;;;;;31.02;63.09;100142.11;1716873;82;20973;-58
2022/06/26 04:36:38;;;;;;;4.03;2.50;;;;;;;31.16;61.95;100140.55;1725669;82;21517;-67
2022/06/26 04:39:05;;;;;;;6.25;2.60;;;;;;;31.15;62.36;100138.98;1724424;82;20969;-58
2022/06/26 04:41:34;;;;;;;6.10;2.87;;;;;;;31.23;61.35;100145.67;1725766;82;22005;-61
2022/06/26 04:44:06;;;;;;;4.03;2.60;;;;;;;31.22;62.96;100146.80;1719247;82;21066;-57
2022/06/26 04:46:34;;;;;;;5.00;2.30;;;;;;;31.33;62.92;100145.09;1721903;82;20997;-59
2022/06/26 04:49:01;;;;;;;4.10;2.50;;;;;;;31.33;61.46;100145.91;1720270;82;21166;-70
2022/06/26 04:51:29;;;;;;;3.62;2.33;;;;;;;31.01;62.46;100145.36;1721385;82;21809;-68
2022/06/26 04:53:57;;;;;;;4.90;2.83;;;;;;;30.56;64.53;100153.06;1710480;82;20990;-57
2022/06/26 04:56:24;;;;;;;4.35;2.85;;;;;;;30.07;68.89;100148.40;1723711;83;21060;-58
2022/06/26 04:58:53;;;;;;;4.40;2.40;;;;;;;29.76;72.58;100150.67;1712484;82;20982;-61
2022/06/26 05:04:06;;;;;;;5.65;3.27;;;;;;;29.38;81.99;100150.95;1645517;84;21025;-59
2022/06/26 05:06:40;;;;;;;5.28;3.08;;;;;;;29.32;85.52;100152.45;1684406;84;21026;-68
2022/06/26 05:09:09;;;;;;;4.67;3.10;;;;;;;29.42;88.01;100153.25;1666929;84;21091;-59
2022/06/26 05:11:40;;;;;;;4.12;3.08;;;;;;;29.72;83.66;100146.23;1670832;84;21023;-57
2022/06/26 05:14:08;;;;;;;4.17;2.90;;;;;;;29.87;80.55;100148.47;1673823;84;21182;-57
2022/06/26 05:16:46;;;;;;;3.90;2.83;;;;;;;30.23;79.15;100148.73;1671275;84;20993;-57
2022/06/26 05:19:14;;;;;;;3.80;2.70;;;;;;;30.33;75.53;100150.33;1676959;84;21114;-59
2022/06/26 05:21:41;;;;;;;5.78;2.40;;;;;;;30.33;68.48;100147.08;1680114;84;21087;-57
2022/06/26 05:24:08;;;;;;;4.20;3.00;;;;;;;30.08;71.13;100145.16;1671194;84;21487;-58
2022/06/26 05:26:39;;;;;;;5.62;3.60;;;;;;;29.75;73.99;100146.41;1671301;84;21179;-57
2022/06/26 05:29:06;;;;;;;4.45;2.90;;;;;;;29.54;77.37;100150.19;1685228;84;21106;-58
2022/06/26 05:31:33;;;;;;;4.08;2.85;;;;;;;29.32;81.61;100142.23;1677221;84;21331;-57
2022/06/26 05:34:03;;;;;;;4.03;2.40;;;;;;;29.23;86.80;100143.55;1682576;82;21642;-57
2022/06/26 05:36:32;;;;;;;4.58;2.85;;;;;;;29.11;89.28;100146.04;1670266;84;21124;-56
2022/06/26 05:39:01;;;;;;;3.27;2.10;;;;;;;29.36;92.27;100143.74;1680421;84;20943;-65
2022/06/26 05:41:30;;;;;;;3.22;2.35;;;;;;;29.84;86.85;100149.66;1673877;84;21021;-56
2022/06/26 05:43:57;;;;;;;4.60;3.15;;;;;;;30.25;81.53;100158.64;1679396;84;21065;-59
2022/06/26 05:46:27;;;;;;;3.58;2.62;;;;;;;30.62;81.17;100161.20;1671355;84;21545;-57
2022/06/26 05:48:53;;;;;;;3.87;2.80;;;;;;;31.07;71.96;100156.76;1678139;84;21050;-58
2022/06/26 05:51:31;;;;;;;4.92;2.15;;;;;;;31.28;70.59;100158.16;1668316;84;21294;-56
2022/06/26 05:54:00;;;;;;;3.87;2.45;;;;;;;31.63;69.83;100154.77;1678421;84;21130;-59
2022/06/26 05:56:30;;;;;;;3.42;2.33;;;;;;;32.21;70.21;100159.03;1671735;84;21093;-57
2022/06/26 05:58:58;;;;;;;4.05;2.50;;;;;;;33.10;62.12;100157.27;1680747;84;21015;-61
2022/06/26 06:01:46;;;;;;;3.90;2.25;;;;;;;34.03;57.02;100161.50;1666212;84;21074;-65
2022/06/26 06:04:15;;;;;;;5.55;2.25;;;;;;;34.74;52.40;100165.34;1682621;84;21285;-56
2022/06/26 06:06:43;;;;;;;3.85;2.12;;;;;;;35.09;47.48;100166.27;1683201;84;21485;-66
2022/06/26 06:09:11;;;;;;;5.83;2.35;;;;;;;35.37;46.24;100167.28;1676403;84;21389;-57
2022/06/26 06:11:38;;;;;;;3.05;2.15;;;;;;;35.24;44.20;100166.05;1683525;84;21062;-58
2022/06/26 06:14:05;;;;;;;2.87;2.02;;;;;;;34.79;45.33;100160.47;1677140;84;21313;-68
2022/06/26 06:16:32;;;;;;;3.02;2.10;;;;;;;34.62;45.60;100168.91;1681630;84;21590;-57
2022/06/26 06:18:59;;;;;;;3.80;2.17;;;;;;;34.75;45.23;100164.23;1676094;84;21066;-58
2022/06/26 06:21:28;;;;;;;2.98;1.98;;;;;;;35.04;44.88;100161.67;1670670;84;21089;-58
2022/06/26 06:23:56;;;;;;;3.83;2.00;;;;;;;35.52;43.84;100161.07;1674384;84;21030;-57
2022/06/26 06:26:25;;;;;;;2.85;1.95;;;;;;;35.80;41.08;100157.63;1667261;84;21105;-57
2022/06/26 06:28:53;;;;;;;2.85;2.05;;;;;;;35.94;42.10;100156.34;1678570;84;21291;-58
2022/06/26 06:31:20;;;;;;;2.65;2.05;;;;;;;36.32;41.90;100150.13;1672341;84;21762;-56
2022/06/26 06:33:48;;;;;;;3.30;2.08;;;;;;;36.80;41.14;100149.84;1699773;82;20982;-57
2022/06/26 06:36:15;;;;;;;2.70;2.05;;;;;;;37.34;39.44;100150.89;1676596;84;21027;-59
2022/06/26 06:38:43;;;;;;;4.58;2.40;;;;;;;37.49;37.67;100157.34;1680091;84;21515;-61
2022/06/26 06:41:10;;;;;;;4.67;2.45;;;;;;;37.26;37.31;100157.38;1683987;82;21634;-57
2022/06/26 06:43:42;;;;;;;3.17;2.30;;;;;;;37.24;37.59;100159.11;1678910;82;21054;-58
2022/06/26 06:46:11;;;;;;;5.05;2.20;;;;;;;37.00;36.79;100163.58;1614142;84;20996;-58
2022/06/26 06:48:40;;;;;;;4.62;2.45;;;;;;;36.38;37.91;100162.27;1689185;84;21437;-56
2022/06/26 06:51:18;;;;;;;3.22;2.40;;;;;;;36.01;38.84;100164.08;1658662;84;21109;-56
2022/06/26 06:53:45;;;;;;;2.87;1.98;;;;;;;35.66;39.21;100164.67;1687588;82;21861;-65
2022/06/26 06:56:12;;;;;;;3.05;2.10;;;;;;;35.31;40.63;100157.30;1675701;82;21014;-56
2022/06/26 06:58:40;;;;;;;4.42;2.17;;;;;;;35.30;41.45;100153.77;1677340;84;21325;-56
2022/06/26 07:01:07;;;;;;;4.33;2.10;;;;;;;35.27;40.41;100162.64;1669219;84;22272;-56
2022/06/26 07:03:35;;;;;;;3.30;2.27;;;;;;;34.97;40.17;100161.50;1673181;84;21788;-56
2022/06/26 07:06:02;;;;;;;3.35;2.35;;;;;;;34.61;40.29;100161.36;1670219;84;22201;-56
2022/06/26 07:08:30;;;;;;;3.15;2.40;;;;;;;34.47;42.16;100160.17;1671991;84;21085;-56
2022/06/26 07:10:57;;;;;;;3.95;2.37;;;;;;;34.30;41.00;100152.59;1671591;84;21045;-65
2022/06/26 07:13:24;;;;;;;3.70;2.50;;;;;;;34.18;42.60;100151.30;1669936;84;21485;-55
2022/06/26 07:15:51;;;;;;;2.77;2.00;;;;;;;34.46;42.19;100155.90;1680731;84;21043;-56
2022/06/26 07:18:18;;;;;;;3.90;2.50;;;;;;;34.50;42.97;100153.53;1669691;84;21270;-57
2022/06/26 07:20:46;;;;;;;3.90;2.12;;;;;;;34.27;41.15;100148.44;1670412;84;21405;-57
2022/06/26 07:23:13;;;;;;;5.47;2.33;;;;;;;33.80;43.10;100149.03;1654800;84;21518;-56
2022/06/26 07:25:48;;;;;;;3.83;2.12;;;;;;;33.96;43.88;100149.09;1633914;84;21059;-55
2022/06/26 07:28:15;;;;;;;7.08;2.45;;;;;;;34.29;43.24;100148.89;1667727;84;21766;-63
2022/06/26 07:30:42;;;;;;;5.45;2.52;;;;;;;34.42;41.40;100153.09;1669969;84;22613;-65
2022/06/26 07:35:56;;;;;;;5.95;2.65;;;;;;;34.10;42.32;100153.02;1671927;84;21532;-62
2022/06/26 07:38:24;;;;;;;4.50;2.20;;;;;;;34.20;42.30;100147.67;1667705;84;21077;-56
2022/06/26 07:40:52;;;;;;;4.42;2.30;;;;;;;34.55;41.50;100151.12;1668697;84;21037;-64
2022/06/26 07:43:21;;;;;;;5.65;2.40;;;;;;;34.79;40.99;100143.44;1675714;84;21505;-57
2022/06/26 07:45:49;;;;;;;4.05;2.50;;;;;;;34.65;40.32;100147.14;1674620;84;21023;-56
2022/06/26 07:48:17;;;;;;;3.10;2.02;;;;;;;34.21;41.61;100137.62;1675351;84;21125;-57
2022/06/26 07:50:46;;;;;;;6.90;2.02;;;;;;;33.78;40.96;100133.70;1669140;84;21379;-59
2022/06/26 07:53:13;;;;;;;5.30;2.35;;;;;;;33.48;43.40;100137.25;1668988;84;21014;-56
2022/06/26 07:55:40;;;;;;;4.60;2.70;;;;;;;33.50;44.76;100135.02;1678177;84;21290;-56
2022/06/26 07:58:08;;;;;;;5.00;2.30;;;;;;;33.74;43.63;100130.89;1673174;84;21014;-58
2022/06/26 08:00:35;;;;;;;4.58;2.40;;;;;;;33.94;43.61;100125.66;1676555;84;21101;-55
2022/06/26 08:03:08;;;;;;;5.10;2.42;;;;;;;34.06;42.07;100135.91;1673046;84;21033;-55
2022/06/26 08:05:36;;;;;;;3.52;2.22;;;;;;;33.96;43.02;100128.24;1681812;84;21923;-55
2022/06/26 08:08:04;;;;;;;4.12;2.45;;;;;;;33.98;41.44;100128.73;1675727;84;21155;-60
2022/06/26 08:10:32;;;;;;;4.53;2.47;;;;;;;34.00;41.00;100126.45;1667471;84;21081;-55
2022/06/26 08:12:59;;;;;;;3.35;2.30;;;;;;;33.88;40.15;100133.23;1669453;84;20991;-60
2022/06/26 08:15:26;;;;;;;6.62;3.08;;;;;;;33.54;40.37;100125.88;1661391;84;21125;-54
2022/06/26 08:17:54;;;;;;;3.65;2.65;;;;;;;33.03;41.00;100132.17;1668084;84;21054;-63
2022/06/26 08:20:21;;;;;;;5.65;2.80;;;;;;;32.45;42.03;100133.52;1672769;84;21909;-57
2022/06/26 08:22:49;;;;;;;4.58;2.65;;;;;;;31.90;44.22;100138.67;1684544;83;21345;-60
2022/06/26 08:25:16;;;;;;;3.58;2.60;;;;;;;31.66;46.15;100132.53;1669278;84;21054;-56
2022/06/26 08:27:43;;;;;;;4.00;2.60;;;;;;;31.76;45.40;100134.63;1673507;84;21083;-57
2022/06/26 08:30:11;;;;;;;4.08;2.47;;;;;;;31.86;47.86;100139.09;1669144;84;21063;-56
2022/06/26 08:32:38;;;;;;;4.67;2.52;;;;;;;31.92;48.20;100137.77;1673814;84;21502;-55
2022/06/26 08:35:07;;;;;;;4.12;2.65;;;;;;;31.76;47.11;100140.02;1667905;84;21928;-57
2022/06/26 08:37:34;;;;;;;3.52;2.77;;;;;;;31.40;46.30;100138.64;1675893;84;22057;-56
2022/06/26 08:40:01;;;;;;;5.05;2.70;;;;;;;30.91;46.34;100132.80;1684746;84;21087;-65
2022/06/26 08:42:29;;;;;;;4.42;2.22;;;;;;;30.55;48.59;100132.66;1671281;84;21170;-58
2022/06/26 08:44:57;;;;;;;3.33;2.42;;;;;;;30.19;50.39;100145.92;1679030;84;21264;-57
2022/06/26 08:47:25;;;;;;;4.60;2.17;;;;;;;30.00;53.94;100138.14;1676236;83;21021;-57
2022/06/26 08:49:53;;;;;;;3.40;2.23;;;;;;;30.08;54.18;100135.22;1668286;84;21079;-57
2022/06/26 08:52:21;;;;;;;7.05;2.62;;;;;;;30.34;54.55;100137.89;1669115;84;21122;-57
2022/06/26 08:54:49;;;;;;;4.95;2.20;;;;;;;30.77;54.54;100135.72;1677701;84;21685;-64
2022/06/26 08:57:16;;;;;;;4.30;2.50;;;;;;;31.34;50.29;100133.22;1674441;84;22127;-57
2022/06/26 08:59:43;;;;;;;3.02;2.02;;;;;;;31.81;50.23;100130.38;1667921;84;20995;-59
2022/06/26 09:02:12;;;;;;;3.72;1.98;;;;;;;32.40;48.47;100130.25;1672740;84;21031;-57
2022/06/26 09:04:39;;;;;;;3.30;2.20;;;;;;;32.93;43.92;100127.20;1675510;83;20991;-66
2022/06/26 09:07:08;;;;;;;2.92;2.25;;;;;;;33.21;42.22;100122.50;1682116;84;21095;-55
2022/06/26 09:09:42;;;;;;;6.20;2.60;;;;;;;33.22;42.96;100126.77;1666842;84;21160;-64
2022/06/26 09:12:10;;;;;;;4.72;2.50;;;;;;;33.27;40.86;100115.76;1680661;83;21143;-65
2022/06/26 09:14:38;;;;;;;4.55;2.92;;;;;;;33.35;41.54;100112.14;1667051;84;21328;-57
2022/06/26 09:17:05;;;;;;;2.95;2.20;;;;;;;33.56;40.52;100111.44;1669271;84;21028;-56
2022/06/26 09:19:36;;;;;;;4.67;2.60;;;;;;;33.58;40.55;100115.17;1668583;84;21576;-57
2022/06/26 09:22:12;;;;;;;3.60;2.52;;;;;;;33.65;40.04;100108.06;1676545;84;21883;-60
2022/06/26 09:24:40;;;;;;;7.40;2.98;;;;;;;33.73;38.73;100105.00;1679236;84;21073;-55
2022/06/26 09:27:10;;;;;;;5.05;2.40;;;;;;;33.71;38.33;100104.54;1675584;84;21065;-55
2022/06/26 09:29:39;;;;;;;5.50;2.47;;;;;;;33.80;37.87;100109.26;1669118;84;21003;-56
2022/06/26 09:32:12;;;;;;;3.42;2.22;;;;;;;33.94;37.64;100101.31;1673965;84;21069;-55
2022/06/26 09:34:46;;;;;;;4.10;1.98;;;;;;;33.88;38.07;100099.44;1660406;84;21144;-57
2022/06/26 09:37:13;;;;;;;4.92;2.22;;;;;;;33.74;37.64;100101.16;1667315;84;21628;-63
2022/06/26 09:39:40;;;;;;;4.03;2.12;;;;;;;33.59;37.85;100108.06;1683284;84;21084;-56
2022/06/26 09:42:21;;;;;;;3.60;1.95;;;;;;;33.33;37.01;100104.36;1660854;85;21148;-55
2022/06/26 09:44:50;;;;;;;2.50;1.77;;;;;;;33.07;37.25;100098.53;1673782;84;21092;-55
2022/06/26 09:47:29;;;;;;;3.40;1.98;;;;;;;33.00;39.39;100101.00;1675763;84;21284;-56
2022/06/26 09:50:01;;;;;;;5.92;1.60;;;;;;;33.18;37.96;100100.44;1681266;84;21499;-57
2022/06/26 09:52:30;;;;;;;3.67;2.10;;;;;;;33.23;37.44;100105.41;1667296;84;21109;-55
2022/06/26 09:54:58;;;;;;;6.12;1.92;;;;;;;33.23;38.58;100110.81;1679705;84;21022;-62
2022/06/26 09:57:27;;;;;;;2.15;1.67;;;;;;;33.32;38.41;100112.81;1662737;84;21137;-65
2022/06/26 09:59:56;;;;;;;3.22;1.85;;;;;;;33.27;37.48;100104.95;1668299;84;21575;-56
2022/06/26 10:08:06;;;;;;;9.78;2.40;;;;;;;32.06;38.04;100110.54;1674265;84;21018;-56
2022/06/26 10:10:34;;;;;;;6.30;2.37;;;;;;;31.61;40.74;100116.56;1677892;84;21032;-57
2022/06/26 10:13:06;;;;;;;4.30;2.73;;;;;;;31.62;40.06;100115.44;1672645;84;21492;-57
2022/06/26 10:15:49;;;;;;;10.68;3.10;;;;;;;31.83;39.98;100113.33;1676411;84;21203;-57
2022/06/26 10:18:59;;;;;;;5.33;2.20;;;;;;;32.12;40.30;100106.50;1666993;84;21533;-60
2022/06/26 10:21:27;;;;;;;5.15;2.17;;;;;;;32.53;39.26;100103.52;1665287;85;21066;-59
2022/06/26 10:24:02;;;;;;;4.62;2.15;;;;;;;32.89;39.02;100096.60;1677333;84;21017;-56
2022/06/26 10:26:30;;;;;;;3.75;2.33;;;;;;;33.02;38.65;100100.90;1664272;84;21300;-56
2022/06/26 10:29:07;;;;;;;5.33;2.05;;;;;;;32.96;38.62;100110.91;1676622;84;21003;-57
2022/06/26 10:31:48;;;;;;;5.90;2.15;;;;;;;32.87;39.95;100098.84;1646084;86;21621;-56
2022/06/26 10:34:22;;;;;;;3.27;2.05;;;;;;;32.98;39.83;100110.02;1675689;84;21034;-55
2022/06/26 10:37:12;;;;;;;3.67;1.98;;;;;;;32.89;39.06;100108.75;1665678;86;21511;-55
2022/06/26 10:39:49;;;;;;;3.80;2.47;;;;;;;32.51;40.33;100115.78;1673228;84;21160;-56
2022/06/26 10:45:30;;;;;;;4.50;2.50;;;;;;;32.44;40.53;100107.66;1672881;84;21422;-58
2022/06/26 10:47:59;;;;;;;3.47;2.40;;;;;;;32.21;42.05;100111.84;1672946;84;21623;-61
2022/06/26 10:50:38;;;;;;;4.40;2.65;;;;;;;32.02;42.11;100107.49;1657802;84;21471;-57
2022/06/26 10:53:23;;;;;;;3.25;2.30;;;;;;;31.99;43.07;100106.23;1673296;84;21253;-58
2022/06/26 10:55:58;;;;;;;6.12;2.40;;;;;;;32.19;42.37;100100.02;1668033;84;21059;-57
2022/06/26 10:58:35;;;;;;;4.30;2.42;;;;;;;32.20;41.39;100095.41;1667661;84;21379;-55
2022/06/26 11:01:07;;;;;;;4.25;2.80;;;;;;;32.11;42.04;100102.80;1669012;84;21461;-57
2022/06/26 11:03:34;;;;;;;6.03;2.25;;;;;;;32.05;42.24;100098.19;1644936;84;21174;-60
2022/06/26 11:06:05;;;;;;;6.15;2.30;;;;;;;32.22;41.89;100108.80;1684281;82;21239;-56
2022/06/26 11:08:36;;;;;;;;;;;;;;;32.32;40.72;100097.38;1650371;84;21524;-58
2022/06/26 11:11:14;;;;;;;3.25;2.20;;;;;;;32.15;41.59;100105.84;1688168;84;20261;-64
2022/06/26 11:13:53;;;;;;;4.12;2.02;;;;;;;32.02;42.41;100106.94;1673196;84;21718;-63
2022/06/26 11:16:38;;;;;;;4.97;1.92;;;;;;;31.91;41.08;100107.89;1681888;84;21758;-57
2022/06/26 11:19:25;;;;;;;4.97;2.30;;;;;;;31.76;40.53;100109.02;1673214;84;21489;-56
2022/06/26 11:22:10;;;;;;;3.27;2.00;;;;;;;31.59;40.57;100104.52;1680088;84;21385;-56
2022/06/26 11:24:49;;;;;;;2.98;2.10;;;;;;;31.60;40.44;100100.17;1675588;84;21017;-56
2022/06/26 11:27:24;;;;;;;4.62;3.00;;;;;;;31.68;40.64;100090.45;1673577;84;21455;-55
2022/06/26 11:29:52;;;;;;;4.85;2.80;;;;;;;31.94;40.44;100091.63;1679453;82;22248;-62
2022/06/26 11:32:22;;;;;;;3.45;2.15;;;;;;;32.19;40.20;100100.58;1672875;84;21542;-54
2022/06/26 11:34:52;;;;;;;4.78;2.92;;;;;;;32.29;39.50;100095.34;1651686;85;21100;-56
2022/06/26 11:37:35;;;;;;;3.98;3.05;;;;;;;32.31;39.20;100101.17;1671809;84;21096;-57
2022/06/26 11:40:18;;;;;;;4.45;2.62;;;;;;;32.40;39.29;100101.36;1701645;82;21123;-57
2022/06/26 11:42:46;;;;;;;5.58;3.52;;;;;;;32.54;38.18;100096.98;1678095;84;21141;-56
2022/06/26 11:45:26;;;;;;;4.60;3.35;;;;;;;32.56;37.91;100090.70;1681137;84;21103;-57
2022/06/26 11:47:55;;;;;;;6.90;3.60;;;;;;;32.48;37.47;100092.95;1679787;84;21050;-63
2022/06/26 11:50:23;;;;;;;;;;;;;;;32.18;36.85;100111.93;1690265;84;21678;-55
2022/06/26 11:52:54;;;;;;;6.22;4.58;;;;;;;31.73;37.72;100103.16;1671191;84;20216;-56
2022/06/26 11:55:21;;;;;;;5.40;3.80;;;;;;;31.42;37.79;100098.70;1683421;84;21057;-60